Time;durP1;ratioP1;P1;durP2;ratioP2;P2;SDS_P1;SDS_P2;PMS_P1;PMS_P2;Temp;Humidity;BMP_temperature;BMP_pressure;BME280_temperature;BME280_humidity;BME280_pressure;Samples;Min_cycle;Max_cycle;Signal;HPM_P1;HPM_P2
2022/03/11 00:00:12;;;;;;;10.33;7.23;;;;;;;3.91;59.02;98506.88;5058244;28;20214;-70
2022/03/11 00:02:38;;;;;;;9.60;7.57;;;;;;;3.90;59.32;98506.91;5057763;28;20219;-70
2022/03/11 00:05:07;;;;;;;11.00;7.70;;;;;;;3.95;59.12;98505.84;5058850;28;20244;-70
2022/03/11 00:07:34;;;;;;;11.57;8.03;;;;;;;3.78;59.07;98492.56;5057938;28;20251;-70
2022/03/11 00:10:00;;;;;;;11.87;7.43;;;;;;;3.64;59.74;98494.81;5058019;28;20239;-71
2022/03/11 00:12:27;;;;;;;11.97;7.80;;;;;;;3.72;60.88;98492.78;5059142;28;20219;-70
2022/03/11 00:14:54;;;;;;;12.03;8.10;;;;;;;3.70;61.18;98494.59;5058843;28;20211;-70
2022/03/11 00:17:20;;;;;;;13.33;9.00;;;;;;;3.71;61.51;98484.97;5057977;28;20328;-70
2022/03/11 00:19:47;;;;;;;13.00;8.30;;;;;;;3.72;61.33;98486.72;5055352;28;20582;-71
2022/03/11 00:22:15;;;;;;;12.57;8.60;;;;;;;3.56;61.62;98494.22;5058312;28;20214;-71
2022/03/11 00:24:41;;;;;;;11.43;7.50;;;;;;;3.41;61.98;98480.84;5058914;28;20220;-71
2022/03/11 00:27:08;;;;;;;10.67;7.63;;;;;;;3.25;63.08;98479.69;5055955;28;20684;-71
2022/03/11 00:29:34;;;;;;;13.40;8.27;;;;;;;3.13;62.84;98486.19;5057697;28;20213;-69
2022/03/11 00:32:01;;;;;;;10.87;7.70;;;;;;;3.04;63.43;98496.94;5057461;28;20698;-70
2022/03/11 00:34:28;;;;;;;14.30;8.43;;;;;;;2.90;63.94;98493.09;5059481;28;20243;-70
2022/03/11 00:36:54;;;;;;;11.70;8.33;;;;;;;2.86;65.13;98492.34;5057567;28;20212;-70
2022/03/11 00:39:22;;;;;;;12.83;8.63;;;;;;;2.84;64.99;98493.28;5057593;28;20223;-70
2022/03/11 00:41:49;;;;;;;12.33;8.40;;;;;;;2.83;65.02;98489.84;5057033;28;20704;-70
2022/03/11 00:44:15;;;;;;;15.30;9.67;;;;;;;2.79;65.72;98479.53;5055103;28;20234;-70
2022/03/11 00:46:42;;;;;;;13.73;8.80;;;;;;;2.78;65.68;98483.06;5057262;28;20213;-70
2022/03/11 00:49:09;;;;;;;14.60;9.53;;;;;;;2.74;66.69;98477.09;5056951;28;20267;-70
2022/03/11 00:51:35;;;;;;;14.70;9.03;;;;;;;2.66;66.90;98489.53;5057179;28;20250;-70
2022/03/11 00:54:02;;;;;;;12.43;8.93;;;;;;;2.66;67.65;98473.00;5057665;28;20207;-70
2022/03/11 00:56:31;;;;;;;12.83;8.80;;;;;;;2.59;68.11;98482.81;5056877;28;20227;-70
2022/03/11 00:58:57;;;;;;;13.27;8.90;;;;;;;2.60;68.63;98479.28;5057123;28;20221;-70
2022/03/11 01:01:24;;;;;;;12.90;8.70;;;;;;;2.59;67.96;98480.22;5056984;28;20240;-70
2022/03/11 01:03:50;;;;;;;13.07;8.90;;;;;;;2.51;68.53;98484.78;5059121;28;20218;-70
2022/03/11 01:06:18;;;;;;;13.23;9.83;;;;;;;2.48;68.80;98478.81;5056446;28;20212;-70
2022/03/11 01:08:44;;;;;;;16.83;9.77;;;;;;;2.43;69.28;98480.72;5056899;28;20650;-70
2022/03/11 01:11:11;;;;;;;12.27;8.97;;;;;;;2.29;69.29;98478.56;5056864;28;20574;-71
2022/03/11 01:13:40;;;;;;;12.97;9.20;;;;;;;2.20;70.37;98476.22;5059121;28;20215;-70
2022/03/11 01:16:06;;;;;;;17.87;9.60;;;;;;;2.15;70.49;98467.69;5056629;28;20212;-71
2022/03/11 01:18:34;;;;;;;15.87;9.40;;;;;;;2.17;71.00;98472.84;5056185;28;20678;-71
2022/03/11 01:21:00;;;;;;;13.63;9.83;;;;;;;2.22;70.67;98465.75;5052475;28;20221;-71
2022/03/11 01:23:27;;;;;;;15.37;9.87;;;;;;;2.26;70.83;98468.22;5058805;28;20214;-69
2022/03/11 01:25:53;;;;;;;13.93;9.13;;;;;;;2.27;70.90;98469.06;5056577;28;20569;-70
2022/03/11 01:28:20;;;;;;;16.73;10.17;;;;;;;2.29;70.67;98473.34;5056556;28;20250;-70
2022/03/11 01:30:47;;;;;;;15.77;10.23;;;;;;;2.26;70.54;98470.81;5056144;28;20219;-69
2022/03/11 01:33:14;;;;;;;17.23;10.47;;;;;;;2.17;71.24;98465.91;5058611;28;20581;-70
2022/03/11 01:35:41;;;;;;;14.70;9.73;;;;;;;2.09;70.96;98467.88;5042587;28;20682;-70
2022/03/11 01:38:07;;;;;;;17.17;10.00;;;;;;;2.03;71.42;98469.81;5056360;28;20210;-69
2022/03/11 01:40:33;;;;;;;14.90;10.20;;;;;;;2.05;71.83;98468.88;5056433;28;20238;-69
2022/03/11 01:43:00;;;;;;;14.50;10.27;;;;;;;2.04;71.78;98469.78;5057999;28;20220;-69
2022/03/11 01:45:26;;;;;;;17.83;11.00;;;;;;;2.04;72.94;98464.56;5054676;28;20680;-70
2022/03/11 01:47:54;;;;;;;17.00;10.90;;;;;;;2.02;72.58;98468.97;5056107;28;20253;-71
2022/03/11 01:50:21;;;;;;;18.27;12.00;;;;;;;1.97;73.00;98463.03;5055889;28;20684;-71
2022/03/11 01:52:47;;;;;;;18.50;11.20;;;;;;;1.90;73.38;98469.31;5057668;28;20215;-71
2022/03/11 01:55:15;;;;;;;16.07;10.33;;;;;;;1.89;73.48;98472.00;5056926;28;20212;-72
2022/03/11 01:57:41;;;;;;;19.23;11.90;;;;;;;1.90;73.23;98466.72;5056115;28;20310;-70
2022/03/11 02:00:09;;;;;;;17.37;11.50;;;;;;;2.04;74.20;98456.75;5055701;28;20220;-70
2022/03/11 02:02:36;;;;;;;21.93;12.77;;;;;;;2.10;73.43;98464.38;5057163;28;20278;-70
2022/03/11 02:05:04;;;;;;;20.50;12.53;;;;;;;2.25;73.11;98466.50;5056597;28;20222;-70
2022/03/11 02:07:31;;;;;;;22.07;12.80;;;;;;;2.28;73.29;98460.34;5055737;28;20218;-70
2022/03/11 02:09:57;;;;;;;18.60;12.40;;;;;;;2.21;73.32;98464.06;5055805;28;20236;-70
2022/03/11 02:12:28;;;;;;;23.53;12.17;;;;;;;2.17;73.11;98462.44;5054985;28;20215;-71
2022/03/11 02:14:54;;;;;;;18.63;12.23;;;;;;;2.04;73.85;98456.75;5056048;28;20220;-71
2022/03/11 02:17:21;;;;;;;18.77;11.97;;;;;;;1.90;73.29;98460.66;5054669;28;20234;-71
2022/03/11 02:19:48;;;;;;;21.90;12.77;;;;;;;1.83;74.78;98454.78;5053017;28;20556;-71
2022/03/11 02:22:17;;;;;;;21.50;12.77;;;;;;;1.88;74.61;98452.88;5056532;28;20238;-72
2022/03/11 02:24:45;;;;;;;18.77;12.00;;;;;;;1.81;75.07;98445.28;5056448;28;20211;-71
2022/03/11 02:27:11;;;;;;;21.57;12.83;;;;;;;1.76;74.95;98448.03;5055553;28;20227;-72
2022/03/11 02:29:38;;;;;;;21.40;13.10;;;;;;;1.70;75.15;98448.22;5055527;28;20270;-70
2022/03/11 02:32:05;;;;;;;19.33;12.87;;;;;;;1.67;76.06;98447.47;5056013;28;20633;-69
2022/03/11 02:34:32;;;;;;;21.50;12.80;;;;;;;1.76;76.02;98448.03;5055403;28;20297;-70
2022/03/11 02:36:58;;;;;;;20.20;13.47;;;;;;;1.71;75.47;98452.53;5055464;28;20281;-70
2022/03/11 02:39:25;;;;;;;18.70;12.77;;;;;;;1.70;75.37;98448.22;5053463;28;20211;-71
2022/03/11 02:41:53;;;;;;;24.33;13.30;;;;;;;1.66;75.61;98443.97;5055944;28;20222;-71
2022/03/11 02:44:19;;;;;;;19.93;13.57;;;;;;;1.56;76.06;98452.13;5056392;28;20248;-71
2022/03/11 02:46:46;;;;;;;21.77;14.33;;;;;;;1.48;76.22;98454.09;5055387;28;20219;-71
2022/03/11 02:49:13;;;;;;;21.43;13.43;;;;;;;1.53;76.21;98458.25;5055275;28;20720;-71
2022/03/11 02:51:40;;;;;;;19.87;12.97;;;;;;;1.46;75.25;98461.94;5055381;28;20304;-71
2022/03/11 02:54:06;;;;;;;22.07;13.20;;;;;;;1.36;75.49;98450.06;5056846;28;20215;-71
2022/03/11 02:56:33;;;;;;;22.73;13.27;;;;;;;1.35;76.09;98455.34;5055342;28;20210;-71
2022/03/11 02:59:01;;;;;;;20.33;14.47;;;;;;;1.35;76.42;98445.75;5064821;28;20678;-70
2022/03/11 03:01:27;;;;;;;23.77;14.07;;;;;;;1.34;75.75;98445.78;5058736;28;20238;-70
2022/03/11 03:03:54;;;;;;;20.43;13.17;;;;;;;1.27;75.20;98442.53;5057448;28;20211;-70
2022/03/11 03:06:20;;;;;;;22.77;14.53;;;;;;;1.10;76.06;98442.13;5053373;28;20212;-70
2022/03/11 03:08:46;;;;;;;21.13;13.50;;;;;;;1.05;76.56;98446.59;5055082;28;20625;-71
2022/03/11 03:11:13;;;;;;;20.17;13.27;;;;;;;0.93;76.17;98444.31;5055106;28;20219;-71
2022/03/11 03:13:39;;;;;;;21.97;13.27;;;;;;;0.86;76.10;98436.72;5057381;28;20220;-71
2022/03/11 03:16:07;;;;;;;23.97;13.43;;;;;;;0.91;76.88;98435.72;5054835;28;20670;-71
2022/03/11 03:18:34;;;;;;;21.07;13.13;;;;;;;0.84;77.03;98431.56;5054727;28;20211;-70
2022/03/11 03:21:00;;;;;;;22.33;14.43;;;;;;;0.81;77.62;98431.63;5052748;28;20585;-71
2022/03/11 03:23:27;;;;;;;23.80;13.73;;;;;;;0.86;77.58;98432.38;5057537;28;20219;-71
2022/03/11 03:25:54;;;;;;;22.90;14.40;;;;;;;0.86;76.70;98434.97;5055061;28;20245;-71
2022/03/11 03:28:22;;;;;;;20.73;13.30;;;;;;;0.83;76.48;98437.66;5054625;28;20730;-70
2022/03/11 03:30:48;;;;;;;20.67;13.57;;;;;;;0.85;77.18;98441.06;5056960;28;20278;-71
2022/03/11 03:33:16;;;;;;;21.20;13.13;;;;;;;0.82;76.16;98435.97;5061161;28;20227;-70
2022/03/11 03:35:43;;;;;;;20.63;13.77;;;;;;;0.82;76.53;98438.56;5058679;28;20219;-70
2022/03/11 03:38:09;;;;;;;23.27;14.23;;;;;;;0.69;76.56;98436.31;5058489;28;20220;-70
2022/03/11 03:40:36;;;;;;;23.50;14.10;;;;;;;0.64;76.17;98431.22;5058353;28;20691;-70
2022/03/11 03:43:03;;;;;;;18.90;12.47;;;;;;;0.55;76.68;98426.25;5060528;28;20222;-70
2022/03/11 03:45:30;;;;;;;20.17;13.23;;;;;;;0.52;77.50;98438.47;5044772;28;20222;-70
2022/03/11 03:47:57;;;;;;;23.20;14.13;;;;;;;0.50;76.98;98433.31;5058311;28;20295;-71
2022/03/11 03:50:24;;;;;;;18.90;12.50;;;;;;;0.49;77.16;98442.00;5058239;28;20263;-71
2022/03/11 03:52:51;;;;;;;18.67;12.33;;;;;;;0.44;77.01;98441.25;5060507;28;20216;-71
2022/03/11 03:55:17;;;;;;;20.10;12.90;;;;;;;0.43;76.73;98442.16;5058274;28;20226;-71
2022/03/11 03:57:44;;;;;;;20.90;13.83;;;;;;;0.42;76.97;98437.84;5056370;28;20675;-70
2022/03/11 04:00:12;;;;;;;21.47;13.37;;;;;;;0.32;76.99;98432.91;5058381;28;20223;-70
2022/03/11 04:02:45;;;;;;;21.67;12.77;;;;;;;0.35;76.17;98428.50;5060094;28;20219;-70
2022/03/11 04:05:13;;;;;;;19.87;12.43;;;;;;;0.32;76.08;98428.53;5044947;28;20213;-71
2022/03/11 04:07:41;;;;;;;18.77;12.97;;;;;;;0.21;77.20;98435.78;5058147;28;20219;-71
2022/03/11 04:10:08;;;;;;;22.67;12.73;;;;;;;0.24;76.51;98427.88;5058112;28;20629;-71
2022/03/11 04:12:35;;;;;;;21.13;12.17;;;;;;;0.26;76.61;98428.69;5060087;28;20253;-71
2022/03/11 04:15:02;;;;;;;20.27;11.67;;;;;;;0.23;76.29;98428.78;5055292;28;20218;-70
2022/03/11 04:17:28;;;;;;;18.53;12.07;;;;;;;0.23;75.80;98428.78;5057896;28;20576;-70
2022/03/11 04:19:55;;;;;;;19.00;12.27;;;;;;;0.20;75.56;98428.00;5055327;28;20586;-70
2022/03/11 04:22:21;;;;;;;19.07;11.40;;;;;;;0.11;75.92;98439.47;5059676;28;20685;-70
2022/03/11 04:24:50;;;;;;;17.87;11.80;;;;;;;0.03;76.10;98431.00;5055811;28;20223;-71
2022/03/11 04:27:16;;;;;;;19.20;11.70;;;;;;;-0.02;76.44;98435.44;5057708;28;20212;-71
2022/03/11 04:29:43;;;;;;;18.77;12.10;;;;;;;-0.10;76.96;98433.91;5057405;28;20254;-70
2022/03/11 04:32:09;;;;;;;18.47;12.07;;;;;;;-0.18;76.95;98440.16;5059402;28;20223;-70
2022/03/11 04:34:36;;;;;;;21.23;12.03;;;;;;;-0.22;76.65;98440.22;5057645;28;20576;-71
2022/03/11 04:37:02;;;;;;;18.17;11.47;;;;;;;-0.24;76.76;98435.09;5057379;28;20586;-71
2022/03/11 04:39:29;;;;;;;20.70;12.17;;;;;;;-0.25;76.73;98441.19;5057155;28;20211;-71
2022/03/11 04:41:57;;;;;;;16.37;11.00;;;;;;;-0.32;76.27;98442.22;5057867;28;20214;-72
2022/03/11 04:44:23;;;;;;;17.87;10.97;;;;;;;-0.40;76.34;98434.56;5057601;28;20224;-72
2022/03/11 04:46:50;;;;;;;17.87;10.97;;;;;;;-0.43;76.19;98436.38;5057117;28;20677;-70
2022/03/11 04:49:18;;;;;;;17.33;11.07;;;;;;;-0.46;75.96;98433.84;5055564;28;20238;-71
2022/03/11 04:51:44;;;;;;;19.87;11.43;;;;;;;-0.50;76.53;98438.25;5058309;28;20703;-70
2022/03/11 04:54:11;;;;;;;18.43;10.83;;;;;;;-0.56;76.33;98443.56;5058135;28;20565;-71
2022/03/11 04:56:37;;;;;;;15.80;10.47;;;;;;;-0.66;76.29;98438.59;5056720;28;20222;-70
2022/03/11 04:59:05;;;;;;;17.20;10.67;;;;;;;-0.76;76.57;98439.66;5056974;28;20568;-70
2022/03/11 05:01:32;;;;;;;18.67;10.67;;;;;;;-0.81;77.34;98446.69;5057803;28;20251;-71
2022/03/11 05:03:58;;;;;;;14.77;9.50;;;;;;;-0.84;76.24;98433.75;5058174;28;20218;-71
2022/03/11 05:06:25;;;;;;;15.97;10.30;;;;;;;-0.88;76.09;98432.97;5056971;28;20218;-71
2022/03/11 05:08:51;;;;;;;16.67;9.93;;;;;;;-0.87;75.75;98437.28;5056874;28;20227;-70
2022/03/11 05:11:18;;;;;;;20.67;10.63;;;;;;;-0.97;74.74;98440.94;5057324;28;20625;-71
2022/03/11 05:13:44;;;;;;;16.87;10.27;;;;;;;-1.03;75.40;98447.97;5058350;28;20679;-71
2022/03/11 05:16:12;;;;;;;14.50;9.80;;;;;;;-1.09;75.93;98441.19;5055316;28;20577;-70
2022/03/11 05:18:39;;;;;;;13.87;9.53;;;;;;;-1.06;75.05;98445.44;5056745;28;20214;-70
2022/03/11 05:21:05;;;;;;;16.13;9.63;;;;;;;-1.11;75.02;98450.69;5054158;28;20227;-70
2022/03/11 05:23:32;;;;;;;14.10;9.50;;;;;;;-1.20;75.00;98442.22;5058722;28;20216;-70
2022/03/11 05:25:58;;;;;;;14.63;8.87;;;;;;;-1.28;75.21;98449.31;5056676;28;20215;-70
2022/03/11 05:28:25;;;;;;;16.47;9.87;;;;;;;-1.37;75.55;98444.25;5056640;28;20225;-70
2022/03/11 05:30:52;;;;;;;14.73;9.23;;;;;;;-1.42;76.14;98456.47;5056287;28;20240;-70
2022/03/11 05:33:19;;;;;;;17.57;8.67;;;;;;;-1.46;76.12;98454.81;5058741;28;20212;-71
2022/03/11 05:35:46;;;;;;;16.63;8.87;;;;;;;-1.51;74.97;98454.03;5056292;28;20217;-71
2022/03/11 05:38:12;;;;;;;14.43;9.67;;;;;;;-1.58;75.26;98455.00;5056285;28;20583;-71
2022/03/11 05:40:39;;;;;;;15.47;9.13;;;;;;;-1.61;75.78;98455.06;5056471;28;20214;-71
2022/03/11 05:43:05;;;;;;;14.63;9.03;;;;;;;-1.67;75.24;98455.19;5057089;28;20220;-70
2022/03/11 05:45:33;;;;;;;14.47;7.97;;;;;;;-1.67;75.42;98462.94;5056346;28;20625;-70
2022/03/11 05:47:59;;;;;;;14.37;8.03;;;;;;;-1.72;75.54;98459.56;5056082;28;20296;-70
2022/03/11 05:50:27;;;;;;;14.37;8.50;;;;;;;-1.75;74.66;98455.28;5056166;28;20242;-70
2022/03/11 05:52:54;;;;;;;14.03;7.83;;;;;;;-1.84;75.34;98457.16;5058316;28;20212;-70
2022/03/11 05:55:20;;;;;;;17.83;8.30;;;;;;;-1.86;75.27;98459.78;5055840;28;20210;-70
2022/03/11 05:57:47;;;;;;;13.60;8.60;;;;;;;-1.82;75.12;98464.03;5056072;28;20215;-70
2022/03/11 06:00:14;;;;;;;12.07;8.50;;;;;;;-1.77;74.70;98453.59;5055836;28;20228;-71
2022/03/11 06:02:41;;;;;;;12.40;7.43;;;;;;;-1.66;74.04;98462.06;5058410;28;20213;-70
2022/03/11 06:05:09;;;;;;;11.00;7.07;;;;;;;-1.59;74.30;98456.72;5055791;28;20215;-71
2022/03/11 06:07:37;;;;;;;11.30;6.97;;;;;;;-1.40;72.88;98454.69;5054455;28;20218;-70
2022/03/11 06:10:04;;;;;;;13.00;7.40;;;;;;;-1.30;73.36;98451.09;5055434;28;20233;-71
2022/03/11 06:12:31;;;;;;;10.43;7.00;;;;;;;-1.22;71.76;98455.22;5058202;28;20222;-71
2022/03/11 06:14:58;;;;;;;11.17;7.30;;;;;;;-1.10;71.48;98455.00;5055574;28;20220;-70
2022/03/11 06:17:24;;;;;;;11.77;7.03;;;;;;;-1.10;72.11;98454.16;5055912;28;20218;-70
2022/03/11 06:19:51;;;;;;;10.90;7.13;;;;;;;-1.08;71.07;98452.38;5053597;28;20204;-70
2022/03/11 06:22:17;;;;;;;9.43;6.33;;;;;;;-1.05;71.66;98457.53;5057881;28;20216;-71
2022/03/11 06:24:45;;;;;;;9.43;6.47;;;;;;;-0.92;71.04;98462.44;5055801;28;20213;-71
2022/03/11 06:27:12;;;;;;;10.77;6.90;;;;;;;-0.82;70.81;98458.78;5055560;28;20233;-70
2022/03/11 06:29:38;;;;;;;9.43;6.37;;;;;;;-0.69;69.46;98467.22;5055499;28;20242;-70
2022/03/11 06:32:05;;;;;;;9.63;6.43;;;;;;;-0.54;70.14;98461.69;5057030;28;20214;-71
2022/03/11 06:34:32;;;;;;;10.30;6.47;;;;;;;-0.37;69.19;98462.22;5054416;28;20221;-70
2022/03/11 06:36:58;;;;;;;13.27;6.93;;;;;;;-0.24;68.02;98456.75;5055258;28;20233;-71
2022/03/11 06:39:24;;;;;;;11.30;6.50;;;;;;;-0.10;67.19;98465.06;5055455;28;20230;-71
2022/03/11 06:41:52;;;;;;;8.40;6.17;;;;;;;0.05;68.42;98455.19;5056222;28;20212;-70
2022/03/11 06:44:19;;;;;;;9.53;5.80;;;;;;;0.18;67.63;98459.22;5056384;28;20661;-71
2022/03/11 06:46:45;;;;;;;9.70;6.20;;;;;;;0.33;65.86;98450.22;5055389;28;20597;-72
2022/03/11 06:49:12;;;;;;;10.37;6.03;;;;;;;0.49;63.44;98457.59;5055148;28;20215;-71
2022/03/11 06:51:39;;;;;;;11.47;5.60;;;;;;;0.62;61.85;98453.81;5055927;28;20215;-72
2022/03/11 06:54:07;;;;;;;10.27;6.03;;;;;;;0.82;60.46;98458.50;5056815;28;20214;-71
2022/03/11 06:56:34;;;;;;;8.63;5.50;;;;;;;0.93;59.71;98454.72;5055448;28;20215;-71
2022/03/11 06:59:02;;;;;;;7.80;5.57;;;;;;;1.03;59.88;98456.19;5055241;28;20216;-71
2022/03/11 07:01:29;;;;;;;11.83;5.33;;;;;;;1.14;58.38;98456.78;5054307;28;20244;-73
2022/03/11 07:03:55;;;;;;;8.37;5.40;;;;;;;1.24;58.04;98452.16;5056817;28;20211;-72
2022/03/11 07:06:22;;;;;;;9.37;5.23;;;;;;;1.33;58.20;98450.16;5058833;28;20215;-72
2022/03/11 07:08:48;;;;;;;7.80;5.07;;;;;;;1.43;57.84;98446.41;5059216;28;20219;-72
2022/03/11 07:11:15;;;;;;;9.40;5.13;;;;;;;1.59;57.89;98452.88;5059343;28;20325;-72
2022/03/11 07:13:44;;;;;;;9.57;5.70;;;;;;;1.71;55.06;98452.53;5061088;28;20214;-72
2022/03/11 07:16:12;;;;;;;7.43;4.93;;;;;;;1.79;55.33;98465.34;5059025;28;20216;-71
2022/03/11 07:18:39;;;;;;;8.20;5.07;;;;;;;1.91;53.97;98465.81;5059025;28;20293;-72
2022/03/11 07:21:05;;;;;;;8.77;5.37;;;;;;;1.99;54.76;98463.84;5056570;28;20212;-72
2022/03/11 07:23:32;;;;;;;9.17;5.40;;;;;;;2.11;55.22;98460.00;5060763;28;20214;-72
2022/03/11 07:25:58;;;;;;;8.07;5.23;;;;;;;2.20;54.53;98465.78;5058642;28;20212;-72
2022/03/11 07:28:27;;;;;;;8.13;5.20;;;;;;;2.32;53.59;98473.22;5057831;28;20216;-71
2022/03/11 07:30:53;;;;;;;11.50;6.00;;;;;;;2.43;52.59;98465.06;5058670;28;20239;-71
2022/03/11 07:33:21;;;;;;;8.50;5.60;;;;;;;2.51;52.56;98458.72;5060544;28;20217;-70
2022/03/11 07:35:48;;;;;;;8.23;5.10;;;;;;;2.57;52.33;98468.94;5058479;28;20216;-71
2022/03/11 07:38:14;;;;;;;7.20;5.07;;;;;;;2.70;51.72;98465.03;5058423;28;20702;-71
2022/03/11 07:40:41;;;;;;;8.30;5.40;;;;;;;2.75;51.51;98460.50;5058596;28;20598;-72
2022/03/11 07:43:09;;;;;;;8.43;5.43;;;;;;;2.86;50.85;98470.59;5060894;28;20216;-72
2022/03/11 07:45:36;;;;;;;9.93;5.27;;;;;;;2.96;50.98;98470.25;5058504;28;20228;-72
2022/03/11 07:48:03;;;;;;;7.17;5.37;;;;;;;2.97;50.46;98474.56;5058106;28;20223;-72
2022/03/11 07:50:32;;;;;;;9.43;5.37;;;;;;;3.15;50.88;98471.34;5058342;28;20259;-72
2022/03/11 07:52:58;;;;;;;8.90;5.37;;;;;;;3.21;51.49;98472.88;5054300;28;20234;-72
2022/03/11 07:55:25;;;;;;;7.93;5.30;;;;;;;3.40;50.38;98469.56;5058154;28;20686;-71
2022/03/11 07:57:51;;;;;;;8.03;5.27;;;;;;;3.53;50.11;98460.38;5058125;28;20593;-71
2022/03/11 08:00:18;;;;;;;8.97;5.57;;;;;;;3.66;50.58;98460.78;5057999;28;20211;-72
2022/03/11 08:02:45;;;;;;;9.43;5.37;;;;;;;3.75;49.88;98460.44;5055547;28;20241;-72
2022/03/11 08:05:14;;;;;;;7.73;5.47;;;;;;;3.73;49.89;98463.09;5055904;28;20216;-71
2022/03/11 08:07:44;;;;;;;8.07;5.37;;;;;;;3.90;48.81;98459.84;5055777;28;20240;-71
2022/03/11 08:10:11;;;;;;;8.23;5.63;;;;;;;3.98;48.88;98456.03;5055234;28;20642;-72
2022/03/11 08:12:37;;;;;;;8.73;5.37;;;;;;;4.12;48.67;98460.75;5046689;28;20211;-72
2022/03/11 08:15:04;;;;;;;8.33;5.63;;;;;;;4.20;48.53;98458.69;5055569;28;20215;-73
2022/03/11 08:17:31;;;;;;;8.07;5.77;;;;;;;4.18;48.62;98458.78;5058413;28;20897;-73
2022/03/11 08:19:57;;;;;;;9.37;5.73;;;;;;;4.38;48.29;98464.06;5059153;28;20721;-74
2022/03/11 08:22:24;;;;;;;9.17;5.63;;;;;;;4.53;48.40;98463.44;5063881;28;20214;-72
2022/03/11 08:24:51;;;;;;;8.97;5.97;;;;;;;4.63;47.75;98459.56;5064330;28;20211;-72
2022/03/11 08:27:18;;;;;;;7.47;5.43;;;;;;;4.77;46.57;98462.47;5060132;28;20228;-72
2022/03/11 08:29:44;;;;;;;10.77;6.30;;;;;;;4.77;47.32;98457.22;5060464;28;20213;-73
2022/03/11 08:32:11;;;;;;;9.83;5.57;;;;;;;4.88;47.04;98456.81;5063286;28;20215;-73
2022/03/11 08:34:37;;;;;;;9.90;5.90;;;;;;;5.05;47.86;98456.94;5063263;28;20274;-73
2022/03/11 08:37:06;;;;;;;9.67;6.47;;;;;;;5.15;46.80;98445.16;5049240;28;20221;-73
2022/03/11 08:39:32;;;;;;;8.07;5.97;;;;;;;5.31;46.42;98448.81;5059539;28;20224;-73
2022/03/11 08:42:00;;;;;;;8.10;6.13;;;;;;;5.36;46.83;98447.69;5062296;28;20238;-74
2022/03/11 08:44:26;;;;;;;11.37;6.50;;;;;;;5.44;47.26;98445.59;5061066;28;20227;-72
2022/03/11 08:46:53;;;;;;;10.87;5.93;;;;;;;5.60;45.74;98446.63;5033558;28;20219;-76
2022/03/11 08:49:19;;;;;;;7.87;5.40;;;;;;;5.64;46.58;98442.94;5050243;28;20225;-76
2022/03/11 08:51:46;;;;;;;7.70;5.40;;;;;;;5.73;46.30;98447.78;5058584;28;20241;-75
2022/03/11 08:54:12;;;;;;;12.57;5.97;;;;;;;5.79;45.28;98447.50;5056841;28;20670;-77
2022/03/11 08:56:40;;;;;;;9.57;6.00;;;;;;;5.85;45.54;98443.75;5056364;28;20291;-76
2022/03/11 08:59:07;;;;;;;8.43;5.73;;;;;;;5.92;45.48;98443.41;5056169;28;20260;-76
2022/03/11 09:01:34;;;;;;;8.50;6.27;;;;;;;5.99;45.07;98442.22;5058077;28;20695;-76
2022/03/11 09:04:00;;;;;;;9.53;6.10;;;;;;;6.04;44.35;98437.63;5057036;28;20224;-75
2022/03/11 09:06:27;;;;;;;8.60;6.07;;;;;;;6.12;44.87;98435.47;5056158;28;20214;-76
2022/03/11 09:08:54;;;;;;;9.67;6.17;;;;;;;6.26;43.79;98435.69;5056479;28;20219;-75
2022/03/11 09:11:20;;;;;;;8.50;6.07;;;;;;;6.31;43.36;98428.47;5058580;28;20238;-76
2022/03/11 09:13:47;;;;;;;10.00;6.13;;;;;;;6.32;43.83;98419.66;5057029;28;20224;-75
2022/03/11 09:16:15;;;;;;;10.73;5.87;;;;;;;6.36;44.60;98423.81;5057459;28;20216;-76
2022/03/11 09:18:42;;;;;;;9.17;5.87;;;;;;;6.52;44.94;98419.53;5057355;28;20222;-75
2022/03/11 09:21:08;;;;;;;8.33;5.67;;;;;;;6.55;44.42;98423.81;5057966;28;20208;-76
2022/03/11 09:23:35;;;;;;;10.13;6.50;;;;;;;6.72;44.24;98414.16;5061327;28;20695;-76
2022/03/11 09:26:01;;;;;;;9.20;6.30;;;;;;;6.85;43.42;98417.88;5056975;28;20234;-76
2022/03/11 09:28:28;;;;;;;8.97;6.03;;;;;;;6.84;44.44;98416.19;5055732;28;20216;-75
2022/03/11 09:30:54;;;;;;;8.87;5.97;;;;;;;6.96;42.29;98410.31;5056094;28;20239;-74
2022/03/11 09:33:22;;;;;;;10.67;6.33;;;;;;;7.02;43.08;98403.91;5057921;28;20220;-75
2022/03/11 09:35:48;;;;;;;10.40;6.60;;;;;;;7.11;44.03;98404.28;5055868;28;20226;-76
2022/03/11 09:38:15;;;;;;;9.27;6.77;;;;;;;7.18;43.45;98386.41;5055767;28;20366;-76
2022/03/11 09:40:43;;;;;;;11.00;6.33;;;;;;;7.29;43.69;98398.91;5054169;28;20219;-75
2022/03/11 09:43:11;;;;;;;9.00;6.30;;;;;;;7.23;42.04;98398.41;5057575;28;20216;-76
2022/03/11 09:45:38;;;;;;;9.50;6.00;;;;;;;7.31;43.17;98393.59;5055534;28;20310;-76
2022/03/11 09:48:05;;;;;;;9.53;6.17;;;;;;;7.36;42.47;98394.22;5055239;28;20215;-76
2022/03/11 09:50:34;;;;;;;8.60;6.50;;;;;;;7.53;43.11;98388.91;5055609;28;20234;-77
2022/03/11 09:53:02;;;;;;;11.83;6.37;;;;;;;7.67;42.82;98381.13;5057472;28;20212;-76
2022/03/11 09:55:28;;;;;;;9.13;6.33;;;;;;;7.65;41.29;98378.56;5055479;28;20268;-78
2022/03/11 09:57:55;;;;;;;10.47;6.43;;;;;;;7.81;41.71;98382.09;5055788;28;20220;-77
2022/03/11 10:00:22;;;;;;;11.03;6.57;;;;;;;7.81;41.91;98378.59;5058270;28;20207;-77
2022/03/11 10:02:48;;;;;;;8.60;6.23;;;;;;;7.80;42.19;98372.50;5057958;28;20243;-77
2022/03/11 10:05:17;;;;;;;9.77;6.63;;;;;;;7.86;40.85;98377.44;5054884;28;20220;-77
2022/03/11 10:07:59;;;;;;;8.57;6.63;;;;;;;8.01;41.90;98378.34;5053702;28;20216;-77
2022/03/11 10:10:25;;;;;;;8.60;6.60;;;;;;;8.08;40.93;98382.38;5057086;28;20215;-77
2022/03/11 10:12:53;;;;;;;10.20;6.30;;;;;;;8.12;41.44;98375.97;5055906;28;20255;-77
2022/03/11 10:15:27;;;;;;;7.43;6.10;;;;;;;8.24;40.82;98372.69;5055005;28;20265;-77
2022/03/11 10:17:54;;;;;;;10.93;7.23;;;;;;;8.31;42.54;98377.53;5054617;28;20211;-77
2022/03/11 10:20:21;;;;;;;8.57;6.73;;;;;;;8.51;40.80;98373.78;5057488;28;20265;-77
2022/03/11 10:22:49;;;;;;;8.97;5.87;;;;;;;8.35;40.70;98372.94;5052271;28;20234;-77
2022/03/11 10:25:18;;;;;;;10.77;6.90;;;;;;;8.41;40.76;98372.59;5054640;28;20715;-77
2022/03/11 10:27:55;;;;;;;10.00;6.57;;;;;;;8.55;40.05;98368.25;5054788;28;20216;-77
2022/03/11 10:30:22;;;;;;;10.90;7.00;;;;;;;8.64;41.51;98369.50;5052438;28;20215;-77
2022/03/11 10:32:50;;;;;;;10.10;7.00;;;;;;;8.84;40.37;98371.81;5052754;28;20215;-77
2022/03/11 10:35:18;;;;;;;9.57;6.70;;;;;;;8.77;40.33;98370.50;5054502;28;20219;-77
2022/03/11 10:37:57;;;;;;;12.00;7.17;;;;;;;8.84;39.85;98371.81;5054942;28;20220;-77
2022/03/11 10:40:24;;;;;;;11.03;7.50;;;;;;;8.82;39.84;98379.00;5054484;28;20755;-77
2022/03/11 10:42:50;;;;;;;10.73;7.33;;;;;;;8.84;40.07;98367.41;5054656;28;20215;-77
2022/03/11 10:45:17;;;;;;;10.00;6.47;;;;;;;9.02;41.27;98365.47;5054725;28;20565;-77
2022/03/11 10:47:43;;;;;;;9.70;7.47;;;;;;;9.21;40.42;98369.56;5056229;28;20222;-77
2022/03/11 10:50:12;;;;;;;8.87;6.50;;;;;;;9.30;40.93;98368.19;5055925;28;20215;-79
2022/03/11 10:52:42;;;;;;;11.57;7.87;;;;;;;9.46;40.30;98363.66;5044334;28;20540;-76
2022/03/11 10:55:21;;;;;;;8.83;7.10;;;;;;;9.62;39.83;98367.06;5054590;28;20224;-78
2022/03/11 10:57:48;;;;;;;9.13;7.27;;;;;;;9.54;39.47;98350.84;5057211;28;20226;-78
2022/03/11 11:00:21;;;;;;;9.87;7.30;;;;;;;9.59;39.76;98356.66;5052942;28;20220;-77
2022/03/11 11:02:48;;;;;;;10.63;7.60;;;;;;;9.51;39.24;98343.97;5053979;28;20263;-78
2022/03/11 11:05:15;;;;;;;9.50;7.90;;;;;;;9.47;39.72;98349.50;5054482;28;20222;-78
2022/03/11 11:07:42;;;;;;;11.83;7.50;;;;;;;9.66;40.09;98358.00;5056722;28;20269;-76
2022/03/11 11:10:10;;;;;;;11.37;7.83;;;;;;;9.81;40.23;98355.28;5054478;28;20208;-77
2022/03/11 11:12:38;;;;;;;10.43;7.53;;;;;;;9.83;39.17;98357.78;5054351;28;20319;-78
2022/03/11 11:15:05;;;;;;;10.20;7.53;;;;;;;9.82;39.43;98351.69;5054361;28;20208;-77
2022/03/11 11:17:32;;;;;;;9.80;6.90;;;;;;;9.75;39.13;98350.38;5057034;28;20211;-77
2022/03/11 11:20:00;;;;;;;12.23;7.77;;;;;;;10.00;39.24;98342.59;5054628;28;20229;-77
2022/03/11 11:22:29;;;;;;;10.10;7.30;;;;;;;10.11;39.57;98329.59;5054123;28;20677;-77
2022/03/11 11:24:56;;;;;;;10.47;7.83;;;;;;;10.19;39.49;98329.09;5053789;28;20218;-78
2022/03/11 11:27:24;;;;;;;10.87;7.90;;;;;;;10.07;38.66;98327.22;5055970;28;20211;-78
2022/03/11 11:29:52;;;;;;;10.50;7.27;;;;;;;10.35;39.24;98324.50;5054289;28;20219;-77